createdAt,value
2022-09-25T00:02:00.391Z,96554.97
2022-09-25T00:07:02.511Z,96566.38
2022-09-25T00:12:04.512Z,96569.91
2022-09-25T00:17:06.809Z,96555.91
2022-09-25T00:22:09.065Z,96539.53
2022-09-25T00:27:12.165Z,96537.56
2022-09-25T00:32:15.416Z,96558.94
2022-09-25T00:37:17.507Z,96533.34
2022-09-25T00:42:21.690Z,96544.56
2022-09-25T00:47:48.803Z,96542.34
2022-09-25T00:52:54.472Z,96530.16
2022-09-25T00:57:58.024Z,96485.41
2022-09-25T01:03:00.427Z,96517.41
2022-09-25T01:08:04.907Z,96504.50
2022-09-25T01:13:07.368Z,96500.97
2022-09-25T01:18:23.292Z,96515.63
2022-09-25T01:23:25.480Z,96522.56
2022-09-25T01:28:36.495Z,96523.91
2022-09-25T01:33:46.821Z,96507.03
2022-09-25T01:38:56.174Z,96523.16
2022-09-25T01:44:23.577Z,96518.41
2022-09-25T01:49:32.731Z,96524.44
2022-09-25T01:54:41.921Z,96528.72
2022-09-25T01:59:59.566Z,96522.81
2022-09-25T02:05:07.886Z,96523.81
2022-09-25T02:10:19.737Z,96518.69
2022-09-25T02:15:37.683Z,96518.53
2022-09-25T02:20:42.728Z,96527.19
2022-09-25T02:26:12.181Z,96526.47
2022-09-25T02:31:17.517Z,96524.09
2022-09-25T02:36:22.125Z,96518.97
2022-09-25T02:41:33.169Z,96519.78
2022-09-25T02:46:40.315Z,96523.78
2022-09-25T02:51:55.229Z,96524.31
2022-09-25T02:57:29.118Z,96537.84
2022-09-25T03:02:35.088Z,96511.50
2022-09-25T03:07:58.084Z,96526.88
2022-09-25T03:13:23.671Z,96519.25
2022-09-25T03:18:27.040Z,96520.34
2022-09-25T03:23:29.116Z,96524.50
2022-09-25T03:28:31.462Z,96512.19
2022-09-25T03:33:37.280Z,96531.47
2022-09-25T03:38:44.312Z,96540.00
2022-09-25T03:43:48.273Z,96494.97
2022-09-25T03:48:50.603Z,96512.34
2022-09-25T03:53:53.819Z,96509.78
2022-09-25T03:58:56.708Z,96522.72
2022-09-25T04:04:00.251Z,96514.50
2022-09-25T04:09:02.602Z,96514.56
2022-09-25T04:14:05.517Z,96518.56
2022-09-25T04:19:07.664Z,96539.50
2022-09-25T04:24:29.002Z,96517.09
2022-09-25T04:29:32.433Z,96538.28
2022-09-25T04:34:35.205Z,96533.59
2022-09-25T04:39:37.276Z,96520.84
2022-09-25T04:44:39.462Z,96539.09
2022-09-25T04:49:42.021Z,96518.88
2022-09-25T04:54:44.793Z,96541.41
2022-09-25T04:59:49.130Z,96532.97
2022-09-25T05:04:51.275Z,96542.94
2022-09-25T05:09:53.432Z,96524.28
2022-09-25T05:14:55.542Z,96532.06
2022-09-25T05:19:57.696Z,96535.44
2022-09-25T05:24:59.895Z,96533.38
2022-09-25T05:30:02.637Z,96522.56
2022-09-25T05:35:05.920Z,96507.19
2022-09-25T05:40:08.681Z,96493.94
2022-09-25T05:45:18.406Z,96523.91
2022-09-25T05:50:20.621Z,96518.25
2022-09-25T05:55:22.889Z,96500.97
2022-09-25T06:00:24.952Z,96507.19
2022-09-25T06:05:27.176Z,96498.88
2022-09-25T06:10:29.307Z,96462.94
2022-09-25T06:15:37.964Z,96484.50
2022-09-25T06:20:40.116Z,96431.88
2022-09-25T06:25:42.810Z,96450.13
2022-09-25T06:30:45.957Z,96436.97
2022-09-25T06:35:49.167Z,96452.44
2022-09-25T06:40:51.352Z,96442.50
2022-09-25T06:45:53.758Z,96445.09
2022-09-25T06:50:58.079Z,96448.88
2022-09-25T06:56:00.412Z,96450.97
2022-09-25T07:01:07.660Z,96427.00
2022-09-25T07:06:19.858Z,96445.84
2022-09-25T07:11:28.258Z,96454.25
2022-09-25T07:16:30.766Z,96433.19
2022-09-25T07:21:32.920Z,96410.97
2022-09-25T07:26:36.956Z,96406.31
2022-09-25T07:31:43.467Z,96421.38
2022-09-25T07:36:46.440Z,96433.63
2022-09-25T07:41:48.496Z,96417.59
2022-09-25T07:46:50.600Z,96411.50
2022-09-25T07:51:54.363Z,96408.72
2022-09-25T07:56:56.581Z,96396.63
2022-09-25T08:01:58.697Z,96400.50
2022-09-25T08:07:01.155Z,96387.38
2022-09-25T08:12:03.540Z,96377.72
2022-09-25T08:17:05.693Z,96370.06
2022-09-25T08:22:07.768Z,96363.16
2022-09-25T08:27:09.831Z,96355.91
2022-09-25T08:32:12.440Z,96361.97
2022-09-25T08:37:14.996Z,96346.03
2022-09-25T08:42:23.496Z,96355.75
2022-09-25T08:47:46.085Z,96360.13
2022-09-25T08:52:55.652Z,96341.53
2022-09-25T08:57:57.969Z,96330.56
2022-09-25T09:03:00.466Z,96332.34
2022-09-25T09:08:15.774Z,96306.38
2022-09-25T09:13:35.960Z,96323.13
2022-09-25T09:18:41.027Z,96310.91
2022-09-25T09:24:08.978Z,96292.59
2022-09-25T09:29:29.206Z,96316.88
2022-09-25T09:35:06.468Z,96324.47
2022-09-25T09:40:35.366Z,96327.53
2022-09-25T09:45:59.273Z,96318.66
2022-09-25T09:51:32.329Z,96294.91
2022-09-25T09:56:36.053Z,96305.59
2022-09-25T10:01:42.100Z,96298.63
2022-09-25T10:06:50.400Z,96289.31
2022-09-25T10:12:01.201Z,96304.66
2022-09-25T10:17:04.809Z,96272.66
2022-09-25T10:22:17.272Z,96280.06
2022-09-25T10:27:22.496Z,96300.41
2022-09-25T10:32:24.734Z,96276.50
2022-09-25T10:37:35.108Z,96256.66
2022-09-25T10:42:41.936Z,96293.53
2022-09-25T10:48:05.653Z,96268.84
2022-09-25T10:53:28.457Z,96252.00
2022-09-25T10:59:00.025Z,96279.31
2022-09-25T11:04:09.448Z,96258.25
2022-09-25T11:09:18.499Z,96284.59
2022-09-25T11:14:33.030Z,96282.00
2022-09-25T11:19:37.954Z,96271.03
2022-09-25T11:24:47.362Z,96267.38
2022-09-25T11:29:55.454Z,96254.38
2022-09-25T11:35:15.721Z,96250.66
2022-09-25T11:41:07.719Z,96240.69
2022-09-25T11:46:36.343Z,96267.91
2022-09-25T11:52:00.927Z,96240.06
2022-09-25T11:57:09.077Z,96257.63
2022-09-25T12:02:17.539Z,96255.28
2022-09-25T12:07:40.801Z,96249.63
2022-09-25T12:12:43.236Z,96243.84
2022-09-25T12:17:48.143Z,96224.34
2022-09-25T12:23:14.492Z,96226.88
2022-09-25T12:28:42.075Z,96212.81
2022-09-25T12:33:47.334Z,96205.56
2022-09-25T12:38:57.867Z,96205.75
2022-09-25T12:44:27.283Z,96202.50
2022-09-25T12:49:41.013Z,96172.56
2022-09-25T12:54:58.705Z,96187.66
2022-09-25T13:00:09.079Z,96188.78
2022-09-25T13:05:34.258Z,96165.00
2022-09-25T13:11:02.023Z,96190.44
2022-09-25T13:16:05.465Z,96184.72
2022-09-25T13:21:43.395Z,96189.31
2022-09-25T13:26:55.381Z,96174.13
2022-09-25T13:32:21.179Z,96182.09
2022-09-25T13:37:36.793Z,96178.69
2022-09-25T13:42:47.924Z,96165.00
2022-09-25T13:48:09.016Z,96174.66
2022-09-25T13:53:23.182Z,96172.03
2022-09-25T13:58:32.341Z,96153.47
2022-09-25T14:03:47.518Z,96165.56
2022-09-25T14:08:51.771Z,96163.22
2022-09-25T14:13:56.806Z,96157.16
2022-09-25T14:19:01.184Z,96153.16
2022-09-25T14:24:21.367Z,96158.59
2022-09-25T14:29:31.138Z,96146.59
2022-09-25T14:35:10.180Z,96140.06
2022-09-25T14:40:23.945Z,96143.22
2022-09-25T14:45:50.633Z,96136.38
2022-09-25T14:51:00.739Z,96114.69
2022-09-25T14:56:05.735Z,96126.88
2022-09-25T15:01:30.748Z,96115.53
2022-09-25T15:06:39.315Z,96105.50
2022-09-25T15:11:43.127Z,96133.94
2022-09-25T15:17:04.270Z,96121.28
2022-09-25T15:22:18.162Z,96134.56
2022-09-25T15:27:22.849Z,96148.94
2022-09-25T15:32:31.312Z,96141.28
2022-09-25T15:37:33.911Z,96125.03
2022-09-25T15:42:36.519Z,96124.88
2022-09-25T15:47:38.606Z,96144.88
2022-09-25T15:52:40.868Z,96150.69
2022-09-25T15:57:43.520Z,96133.69
2022-09-25T16:03:22.105Z,96140.81
2022-09-25T16:08:24.366Z,96150.22
2022-09-25T16:13:27.415Z,96127.03
2022-09-25T16:18:41.995Z,96143.91
2022-09-25T16:23:55.805Z,96151.63
2022-09-25T16:29:03.750Z,96156.44
2022-09-25T16:34:15.596Z,96152.00
2022-09-25T16:39:27.357Z,96155.34
2022-09-25T16:44:32.635Z,96163.22
2022-09-25T16:49:37.897Z,96159.47
2022-09-25T16:54:41.152Z,96148.16
2022-09-25T16:59:43.650Z,96172.22
2022-09-25T17:04:45.833Z,96143.91
2022-09-25T17:09:47.948Z,96142.94
2022-09-25T17:14:50.837Z,96136.78
2022-09-25T17:19:53.096Z,96129.75
2022-09-25T17:24:59.405Z,96137.72
2022-09-25T17:30:01.665Z,96143.16
2022-09-25T17:35:26.889Z,96136.16
2022-09-25T17:40:31.291Z,96157.63
2022-09-25T17:45:45.015Z,96173.16
2022-09-25T17:50:55.434Z,96148.09
2022-09-25T17:55:58.825Z,96168.44
2022-09-25T18:01:01.985Z,96190.31
2022-09-25T18:06:04.748Z,96185.81
2022-09-25T18:11:10.959Z,96159.19
2022-09-25T18:16:27.854Z,96171.38
2022-09-25T18:21:48.548Z,96191.50
2022-09-25T18:26:53.991Z,96186.38
2022-09-25T18:31:56.340Z,96170.13
2022-09-25T18:36:59.655Z,96181.66
2022-09-25T18:42:01.865Z,96204.84
2022-09-25T18:47:04.399Z,96172.38
2022-09-25T18:52:06.974Z,96186.50
2022-09-25T18:57:10.638Z,96183.31
2022-09-25T19:02:22.735Z,96191.69
2022-09-25T19:07:27.569Z,96205.50
2022-09-25T19:12:30.944Z,96198.97
2022-09-25T19:17:35.332Z,96163.72
2022-09-25T19:22:37.657Z,96192.56
2022-09-25T19:27:39.761Z,96219.03
2022-09-25T19:32:41.826Z,96193.88
2022-09-25T19:37:44.384Z,96183.44
2022-09-25T19:42:47.185Z,96176.88
2022-09-25T19:47:49.297Z,96194.63
2022-09-25T19:52:51.595Z,96181.97
2022-09-25T19:57:53.870Z,96188.66
2022-09-25T20:02:56.201Z,96206.47
2022-09-25T20:07:58.429Z,96204.31
2022-09-25T20:13:01.921Z,96183.69
2022-09-25T20:18:04.137Z,96195.38
2022-09-25T20:23:07.978Z,96189.28
2022-09-25T20:28:13.171Z,96200.00
2022-09-25T20:33:15.368Z,96180.53
2022-09-25T20:38:17.727Z,96177.94
2022-09-25T20:43:19.902Z,96200.91
2022-09-25T20:48:22.091Z,96197.59
2022-09-25T20:53:25.508Z,96214.34
2022-09-25T20:58:29.528Z,96199.09
2022-09-25T21:03:33.236Z,96176.63
2022-09-25T21:08:35.477Z,96181.47
2022-09-25T21:13:39.009Z,96210.16
2022-09-25T21:18:42.638Z,96208.56
2022-09-25T21:23:49.592Z,96189.06
2022-09-25T21:28:53.471Z,96189.91
2022-09-25T21:33:57.310Z,96189.25
2022-09-25T21:39:00.804Z,96191.25
2022-09-25T21:44:07.362Z,96181.75
2022-09-25T21:49:18.192Z,96187.38
2022-09-25T21:54:20.877Z,96179.44
2022-09-25T21:59:23.615Z,96199.00
2022-09-25T22:04:25.857Z,96181.19
2022-09-25T22:09:28.193Z,96171.28
2022-09-25T22:14:30.230Z,96185.34
2022-09-25T22:19:32.300Z,96167.72
2022-09-25T22:24:34.648Z,96146.31
2022-09-25T22:29:37.702Z,96147.50
2022-09-25T22:34:40.881Z,96163.94
2022-09-25T22:39:43.032Z,96160.63
2022-09-25T22:44:45.266Z,96160.09
2022-09-25T22:49:47.494Z,96182.97
2022-09-25T22:54:49.854Z,96159.75
2022-09-25T22:59:51.953Z,96146.41
2022-09-25T23:04:54.393Z,96154.84
2022-09-25T23:09:56.923Z,96150.13
2022-09-25T23:14:58.973Z,96145.03
2022-09-25T23:20:01.319Z,96142.16
2022-09-25T23:25:04.003Z,96145.41
2022-09-25T23:30:06.651Z,96147.31
2022-09-25T23:35:09.431Z,96117.81
2022-09-25T23:40:15.450Z,96127.28
2022-09-25T23:45:18.216Z,96129.22
2022-09-25T23:50:20.260Z,96128.59
2022-09-25T23:55:22.328Z,96110.22
